Paradis, Louisiana
Current Conditions -  °F | °C
As of 9:53 AM on Sunday 21 Dec 2014 (Local Time) from KMSY Reporting Station
Overcast Overcast  
Wind Chill: 54°   Ceiling: 1100
Heat Index: 54°   Visibility: 8mi
Dew Point: 48°   Wind: 6mph
Humidity: 80%   Direction: 110°ESE
Pressure: 30.12"   Gusts: NA
Location:  29.88°N, 90.43°W
Report Text: KMSY 211553Z 11005KT 8SM OVC011 12/09 A3012 RMK AO2 SLP203 T01220089
Loading
Personal Weather Stations






























Interactive Weather Map New forecast layout! Learn more

10-Day Weather Forecast

Advertisements
Track Severe Weather on mobile